createdAt,value
2018-02-23T00:00:46.686Z,98060.51
2018-02-23T00:03:14.381Z,98057.22
2018-02-23T00:05:42.052Z,98056.82
2018-02-23T00:08:09.752Z,98059.94
2018-02-23T00:10:37.440Z,98057.14
2018-02-23T00:13:05.326Z,98062.44
2018-02-23T00:15:33.016Z,98060.70
2018-02-23T00:18:00.686Z,98060.89
2018-02-23T00:20:28.380Z,98055.81
2018-02-23T00:22:56.182Z,98057.01
2018-02-23T00:25:23.868Z,98052.67
2018-02-23T00:27:51.538Z,98052.33
2018-02-23T00:30:19.267Z,98053.31
2018-02-23T00:32:46.939Z,98049.28
2018-02-23T00:35:14.615Z,98047.37
2018-02-23T00:37:42.324Z,98050.08
2018-02-23T00:40:10.016Z,98043.17
2018-02-23T00:42:37.707Z,98045.73
2018-02-23T00:45:05.422Z,98043.02
2018-02-23T00:47:33.118Z,98041.00
2018-02-23T00:50:00.791Z,98040.20
2018-02-23T00:52:28.458Z,98033.59
2018-02-23T00:54:56.143Z,98035.94
2018-02-23T00:57:23.816Z,98037.45
2018-02-23T00:59:51.504Z,98033.67
2018-02-23T01:02:19.163Z,98042.27
2018-02-23T01:04:47.157Z,98038.89
2018-02-23T01:07:14.822Z,98039.42
2018-02-23T01:09:42.502Z,98043.94
2018-02-23T01:12:10.200Z,98034.44
2018-02-23T01:14:37.898Z,98041.36
2018-02-23T01:17:05.594Z,98045.75
2018-02-23T01:19:33.273Z,98036.84
2018-02-23T01:22:00.996Z,98039.83
2018-02-23T01:24:28.666Z,98038.02
2018-02-23T01:26:56.341Z,98044.59
2018-02-23T01:29:24.033Z,98045.41
2018-02-23T01:31:51.702Z,98044.80
2018-02-23T01:34:19.390Z,98039.72
2018-02-23T01:36:47.059Z,98035.42
2018-02-23T01:39:14.772Z,98045.39
2018-02-23T01:41:42.435Z,98049.53
2018-02-23T01:44:10.112Z,98043.55
2018-02-23T01:46:37.854Z,98038.31
2018-02-23T01:49:05.563Z,98032.17
2018-02-23T01:51:33.259Z,98030.59
2018-02-23T01:54:00.932Z,98029.90
2018-02-23T01:56:28.770Z,98019.24
2018-02-23T01:58:56.447Z,98021.03
2018-02-23T02:01:24.125Z,98020.84
2018-02-23T02:03:51.836Z,98019.27
2018-02-23T02:06:19.512Z,98020.83
2018-02-23T02:08:47.218Z,98009.80
2018-02-23T02:11:14.908Z,98015.96
2018-02-23T02:13:42.613Z,98006.77
2018-02-23T02:16:10.336Z,98000.40
2018-02-23T02:18:38.013Z,98004.96
2018-02-23T02:21:05.722Z,97998.45
2018-02-23T02:23:33.404Z,98000.50
2018-02-23T02:26:01.112Z,97993.30
2018-02-23T02:28:28.792Z,97990.81
2018-02-23T02:30:56.476Z,97994.18
2018-02-23T02:33:24.168Z,97984.04
2018-02-23T02:35:51.893Z,97984.28
2018-02-23T02:38:19.616Z,97985.69
2018-02-23T02:40:47.298Z,97988.87
2018-02-23T02:43:14.986Z,97983.97
2018-02-23T02:45:42.684Z,97980.03
2018-02-23T02:48:10.360Z,97980.44
2018-02-23T02:50:38.058Z,97982.51
2018-02-23T02:53:05.736Z,97983.17
2018-02-23T02:55:33.461Z,97988.23
2018-02-23T02:58:01.170Z,97977.57
2018-02-23T03:00:28.841Z,97985.36
2018-02-23T03:02:56.539Z,97982.58
2018-02-23T03:05:24.232Z,97990.95
2018-02-23T03:07:51.924Z,97981.29
2018-02-23T03:10:19.593Z,97982.37
2018-02-23T03:12:47.434Z,97984.77
2018-02-23T03:15:15.109Z,97984.97
2018-02-23T03:17:42.956Z,97992.16
2018-02-23T03:20:10.652Z,97990.97
2018-02-23T03:22:38.335Z,97990.17
2018-02-23T03:25:06.036Z,97986.80
2018-02-23T03:27:33.723Z,97991.06
2018-02-23T03:30:01.420Z,97983.22
2018-02-23T03:32:29.083Z,97987.27
2018-02-23T03:34:56.921Z,97986.00
2018-02-23T03:37:24.600Z,97991.75
2018-02-23T03:39:52.277Z,97989.02
2018-02-23T03:42:19.976Z,97991.35
2018-02-23T03:44:47.666Z,97986.06
2018-02-23T03:47:15.357Z,97988.69
2018-02-23T03:49:43.028Z,97989.11
2018-02-23T03:52:10.852Z,97999.78
2018-02-23T03:54:38.543Z,98000.95
2018-02-23T03:57:06.221Z,97994.28
2018-02-23T03:59:33.925Z,97989.10
2018-02-23T04:02:01.605Z,97994.63
2018-02-23T04:04:29.292Z,97996.14
2018-02-23T04:06:56.956Z,98000.09
2018-02-23T04:09:24.698Z,97995.59
2018-02-23T04:11:52.367Z,97999.96
2018-02-23T04:14:20.043Z,97995.89
2018-02-23T04:16:47.783Z,97993.59
2018-02-23T04:19:15.467Z,98001.12
2018-02-23T04:21:43.164Z,98004.91
2018-02-23T04:24:10.861Z,97998.98
2018-02-23T04:26:38.724Z,97997.89
2018-02-23T04:29:06.411Z,97992.90
2018-02-23T04:31:34.081Z,97990.19
2018-02-23T04:34:01.824Z,97990.19
2018-02-23T04:36:29.525Z,97988.58
2018-02-23T04:38:57.236Z,97988.64
2018-02-23T04:41:24.921Z,97987.50
2018-02-23T04:43:52.633Z,97987.14
2018-02-23T04:46:20.300Z,97988.30
2018-02-23T04:48:48.007Z,97984.72
2018-02-23T04:51:15.728Z,97984.65
2018-02-23T04:53:43.408Z,97979.38
2018-02-23T04:56:11.105Z,97975.95
2018-02-23T04:58:38.779Z,97974.27
2018-02-23T05:01:06.786Z,97973.98
2018-02-23T05:03:34.476Z,97973.41
2018-02-23T05:06:02.156Z,97976.34
2018-02-23T05:08:29.863Z,97970.72
2018-02-23T05:10:57.532Z,97970.59
2018-02-23T05:13:25.235Z,97968.81
2018-02-23T05:15:52.925Z,97966.86
2018-02-23T05:18:20.975Z,97969.38
2018-02-23T05:20:48.651Z,97965.02
2018-02-23T05:23:16.340Z,97967.09
2018-02-23T05:25:44.070Z,97970.64
2018-02-23T05:28:11.749Z,97974.66
2018-02-23T05:30:39.447Z,97978.25
2018-02-23T05:33:07.119Z,97980.48
2018-02-23T05:35:35.024Z,97983.54
2018-02-23T05:38:02.696Z,97989.63
2018-02-23T05:40:30.388Z,97992.72
2018-02-23T05:42:58.101Z,97999.06
2018-02-23T05:45:25.783Z,98005.67
2018-02-23T05:47:53.542Z,98008.01
2018-02-23T05:50:21.232Z,98004.69
2018-02-23T05:52:48.960Z,98015.67
2018-02-23T05:55:16.636Z,98015.86
2018-02-23T05:57:44.311Z,98017.41
2018-02-23T06:00:12.005Z,98015.91
2018-02-23T06:02:39.684Z,98022.66
2018-02-23T06:05:07.400Z,98020.02
2018-02-23T06:07:35.073Z,98027.41
2018-02-23T06:10:02.819Z,98036.00
2018-02-23T06:12:30.508Z,98034.80
2018-02-23T06:14:58.189Z,98036.74
2018-02-23T06:17:31.418Z,98042.45
2018-02-23T06:20:04.816Z,98041.53
2018-02-23T06:22:32.511Z,98054.46
2018-02-23T06:25:00.190Z,98041.13
2018-02-23T06:27:27.936Z,98043.83
2018-02-23T06:29:55.626Z,98047.54
2018-02-23T06:32:23.308Z,98044.08
2018-02-23T06:34:51.023Z,98051.14
2018-02-23T06:37:18.701Z,98054.69
2018-02-23T06:39:46.537Z,98052.55
2018-02-23T06:42:14.218Z,98046.30
2018-02-23T06:44:42.087Z,98044.48
2018-02-23T06:47:12.582Z,98047.14
2018-02-23T06:49:40.264Z,98047.61
2018-02-23T06:52:07.974Z,98047.28
2018-02-23T06:54:35.661Z,98050.89
2018-02-23T06:57:03.379Z,98054.83
2018-02-23T06:59:31.052Z,98055.32
2018-02-23T07:01:59.015Z,98046.91
2018-02-23T07:04:26.701Z,98048.23
2018-02-23T07:06:54.390Z,98045.49
2018-02-23T07:09:22.109Z,98047.62
2018-02-23T07:11:49.788Z,98039.05
2018-02-23T07:14:17.497Z,98045.43
2018-02-23T07:16:45.183Z,98043.77
2018-02-23T07:19:13.292Z,98041.39
2018-02-23T07:21:40.967Z,98040.78
2018-02-23T07:24:08.644Z,98034.36
2018-02-23T07:26:36.356Z,98030.81
2018-02-23T07:29:04.046Z,98034.39
2018-02-23T07:31:31.770Z,98030.48
2018-02-23T07:33:59.444Z,98026.48
2018-02-23T07:36:28.185Z,98029.28
2018-02-23T07:38:55.861Z,98027.67
2018-02-23T07:41:23.541Z,98024.32
2018-02-23T07:43:51.234Z,98029.55
2018-02-23T07:46:21.774Z,98022.69
2018-02-23T07:48:49.472Z,98029.11
2018-02-23T07:51:17.151Z,98027.16
2018-02-23T07:53:45.235Z,98022.16
2018-02-23T07:56:12.977Z,98039.41
2018-02-23T07:58:40.640Z,98041.87
2018-02-23T08:01:08.338Z,98048.03
2018-02-23T08:03:36.008Z,98047.11
2018-02-23T08:06:03.727Z,98044.19
2018-02-23T08:08:31.416Z,98060.85
2018-02-23T08:10:59.278Z,98056.72
2018-02-23T08:13:26.960Z,98060.23
2018-02-23T08:15:54.636Z,98067.48
2018-02-23T08:18:22.340Z,98065.54
2018-02-23T08:20:50.008Z,98053.09
2018-02-23T08:23:17.716Z,98053.23
2018-02-23T08:25:45.430Z,98048.16
2018-02-23T08:28:13.158Z,98059.67
2018-02-23T08:30:40.819Z,98051.14
2018-02-23T08:33:08.522Z,98053.80
2018-02-23T08:35:36.224Z,98054.67
2018-02-23T08:38:03.884Z,98050.95
2018-02-23T08:40:31.580Z,98055.53
2018-02-23T08:42:59.249Z,98059.19
2018-02-23T08:45:27.246Z,98061.69
2018-02-23T08:47:54.919Z,98056.29
2018-02-23T08:50:22.601Z,98061.59
2018-02-23T08:52:50.293Z,98063.84
2018-02-23T08:55:17.975Z,98066.24
2018-02-23T08:57:45.688Z,98072.53
2018-02-23T09:00:18.175Z,98059.28
2018-02-23T09:02:45.988Z,98066.31
2018-02-23T09:05:13.669Z,98063.74
2018-02-23T09:07:41.576Z,98066.63
2018-02-23T09:10:09.348Z,98054.56
2018-02-23T09:12:37.014Z,98064.14
2018-02-23T09:15:04.747Z,98064.66
2018-02-23T09:17:32.438Z,98063.23
2018-02-23T09:20:00.160Z,98066.45
2018-02-23T09:22:28.075Z,98061.34
2018-02-23T09:24:55.973Z,98067.51
2018-02-23T09:27:23.668Z,98074.58
2018-02-23T09:29:51.340Z,98073.96
2018-02-23T09:35:20.557Z,98070.27
2018-02-23T09:37:48.287Z,98076.72
2018-02-23T09:40:15.948Z,98074.66
2018-02-23T09:42:43.611Z,98068.20
2018-02-23T09:45:11.296Z,98083.59
2018-02-23T09:47:38.965Z,98074.53
2018-02-23T09:50:07.266Z,98072.51
2018-02-23T09:52:35.312Z,98077.33
2018-02-23T09:55:03.207Z,98077.09
2018-02-23T09:57:30.876Z,98083.59
2018-02-23T10:00:12.325Z,98074.87
2018-02-23T10:02:54.211Z,98090.33
2018-02-23T10:05:33.808Z,98080.86
2018-02-23T10:08:01.728Z,98083.31
2018-02-23T10:10:29.440Z,98087.77
2018-02-23T10:12:57.104Z,98081.42
2018-02-23T10:15:24.827Z,98084.66
2018-02-23T10:17:52.517Z,98082.84
2018-02-23T10:20:20.438Z,98079.30
2018-02-23T10:22:48.352Z,98073.34
2018-02-23T10:25:16.025Z,98079.78
2018-02-23T10:27:43.744Z,98079.11
2018-02-23T10:30:11.554Z,98079.72
2018-02-23T10:32:39.254Z,98086.82
2018-02-23T10:35:07.023Z,98078.56
2018-02-23T10:37:34.695Z,98074.94
2018-02-23T10:40:02.392Z,98073.08
2018-02-23T10:42:30.141Z,98069.09
2018-02-23T10:44:57.921Z,98058.22
2018-02-23T10:47:25.595Z,98060.67
2018-02-23T10:49:53.424Z,98063.27
2018-02-23T10:52:21.554Z,98057.77
2018-02-23T10:54:49.229Z,98063.58
2018-02-23T10:57:16.970Z,98051.67
2018-02-23T10:59:44.643Z,98043.47
2018-02-23T11:02:12.361Z,98053.95
2018-02-23T11:04:40.048Z,98048.39
2018-02-23T11:07:07.741Z,98056.77
2018-02-23T11:09:35.433Z,98060.33
2018-02-23T11:12:03.113Z,98055.11
2018-02-23T11:14:32.636Z,98051.61
2018-02-23T11:17:00.471Z,98054.53
2018-02-23T11:19:28.586Z,98049.23
2018-02-23T11:21:56.628Z,98040.88
2018-02-23T11:24:29.891Z,98045.24
2018-02-23T11:26:58.152Z,98042.94
2018-02-23T11:29:25.823Z,98040.25
2018-02-23T11:31:54.829Z,98035.55
2018-02-23T11:34:22.529Z,98030.82
2018-02-23T11:36:50.519Z,98024.88
2018-02-23T11:39:18.391Z,98027.91
2018-02-23T11:41:46.063Z,98016.30
2018-02-23T11:44:13.776Z,98012.69
2018-02-23T11:46:41.460Z,98020.13
2018-02-23T11:49:09.506Z,98018.36
2018-02-23T11:51:37.585Z,98018.27
2018-02-23T11:54:05.312Z,98009.30
2018-02-23T11:56:33.238Z,98010.50
2018-02-23T11:59:01.600Z,98002.80
2018-02-23T12:01:29.303Z,98011.36
2018-02-23T12:03:56.998Z,98008.75
2018-02-23T12:06:24.698Z,97993.08
2018-02-23T12:08:52.947Z,97984.55
2018-02-23T12:11:21.007Z,97991.52
2018-02-23T12:13:48.710Z,97995.70
2018-02-23T12:16:16.402Z,97984.45
2018-02-23T12:18:44.421Z,97997.08
2018-02-23T12:21:12.442Z,97993.73
2018-02-23T12:23:40.135Z,97989.88
2018-02-23T12:26:07.816Z,97972.92
2018-02-23T12:28:35.531Z,97973.88
2018-02-23T12:31:03.606Z,97974.75
2018-02-23T12:33:31.487Z,97981.98
2018-02-23T12:35:59.813Z,97985.86
2018-02-23T12:38:27.425Z,97985.02
2018-02-23T12:40:55.310Z,97965.89
2018-02-23T12:43:22.920Z,97965.11
2018-02-23T12:45:51.558Z,97962.97
2018-02-23T12:48:19.750Z,97959.63
2018-02-23T12:50:47.633Z,97964.13
2018-02-23T12:53:15.579Z,97966.81
2018-02-23T12:55:43.185Z,97952.48
2018-02-23T12:58:10.810Z,97943.46
2018-02-23T13:00:38.473Z,97944.18
2018-02-23T13:03:06.425Z,97940.80
2018-02-23T13:05:34.073Z,97935.20
2018-02-23T13:08:01.703Z,97939.74
2018-02-23T13:10:29.338Z,97941.00
2018-02-23T13:12:57.160Z,97933.93
2018-02-23T13:15:24.809Z,97934.91
2018-02-23T13:17:52.407Z,97933.43
2018-02-23T13:20:20.287Z,97926.83
2018-02-23T13:22:48.153Z,97926.28
2018-02-23T13:25:15.839Z,97926.05
2018-02-23T13:27:48.971Z,97930.22
2018-02-23T13:30:16.777Z,97929.77
2018-02-23T13:32:44.400Z,97934.97
2018-02-23T13:35:12.007Z,97943.14
2018-02-23T13:37:39.624Z,97933.12
2018-02-23T13:40:07.258Z,97936.98
2018-02-23T13:42:34.859Z,97939.43
2018-02-23T13:45:02.485Z,97933.22
2018-02-23T13:47:30.096Z,97932.94
2018-02-23T13:49:58.072Z,97927.53
2018-02-23T13:52:25.934Z,97927.06
2018-02-23T13:54:53.544Z,97931.89
2018-02-23T13:57:21.169Z,97932.86
2018-02-23T13:59:48.813Z,97935.69
2018-02-23T14:02:16.622Z,97930.92
2018-02-23T14:04:44.249Z,97934.95
2018-02-23T14:07:17.632Z,97931.59
2018-02-23T14:09:45.251Z,97936.64
2018-02-23T14:12:13.260Z,97936.19
2018-02-23T14:14:43.173Z,97936.14
2018-02-23T14:17:12.335Z,97938.65
2018-02-23T14:19:40.457Z,97937.34
2018-02-23T14:22:08.382Z,97938.88
2018-02-23T14:24:36.333Z,97934.25
2018-02-23T14:27:04.682Z,97929.10
2018-02-23T14:29:32.975Z,97927.54
2018-02-23T14:32:01.846Z,97921.67
2018-02-23T14:34:29.740Z,97927.56
2018-02-23T14:36:57.904Z,97934.68
2018-02-23T14:39:25.515Z,97933.05
2018-02-23T14:41:53.103Z,97945.70
2018-02-23T14:44:20.747Z,97951.64
2018-02-23T14:46:48.418Z,97949.72
2018-02-23T14:49:20.298Z,97952.48
2018-02-23T14:51:48.064Z,97966.69
2018-02-23T14:54:16.024Z,97953.86
2018-02-23T14:56:43.661Z,97946.67
2018-02-23T14:59:11.266Z,97963.55
2018-02-23T15:01:39.872Z,97962.59
2018-02-23T15:04:07.687Z,97957.55
2018-02-23T15:06:35.295Z,97951.02
2018-02-23T15:09:03.016Z,97954.18
2018-02-23T15:11:30.612Z,97950.73
2018-02-23T15:13:58.339Z,97964.27
2018-02-23T15:16:26.012Z,97960.91
2018-02-23T15:18:53.989Z,97963.51
2018-02-23T15:21:22.054Z,97958.70
2018-02-23T15:23:50.321Z,97956.98
2018-02-23T15:26:18.045Z,97951.41
2018-02-23T15:28:45.726Z,97954.17
2018-02-23T15:31:25.368Z,97950.34
2018-02-23T15:33:53.036Z,97945.94
2018-02-23T15:36:20.727Z,97956.06
2018-02-23T15:38:48.548Z,97958.48
2018-02-23T15:41:16.392Z,97943.27
2018-02-23T15:43:44.301Z,97946.95
2018-02-23T15:46:11.987Z,97947.00
2018-02-23T15:48:45.195Z,97943.85
2018-02-23T15:54:19.295Z,97951.56
2018-02-23T15:56:46.983Z,97958.87
2018-02-23T15:59:14.900Z,97958.80
2018-02-23T16:01:42.578Z,97961.87
2018-02-23T16:04:10.250Z,97961.95
2018-02-23T16:06:37.966Z,97957.01
2018-02-23T16:09:05.637Z,97954.66
2018-02-23T16:11:33.359Z,97965.58
2018-02-23T16:14:01.030Z,97972.27
2018-02-23T16:16:28.995Z,97966.02
2018-02-23T16:18:56.673Z,97970.34
2018-02-23T16:21:24.352Z,97965.22
2018-02-23T16:23:52.046Z,97970.89
2018-02-23T16:26:19.730Z,97968.55
2018-02-23T16:28:47.436Z,97969.41
2018-02-23T16:31:15.141Z,97971.68
2018-02-23T16:33:42.855Z,97970.94
2018-02-23T16:36:10.526Z,97969.80
2018-02-23T16:38:38.197Z,97969.00
2018-02-23T16:41:05.888Z,97973.00
2018-02-23T16:43:33.557Z,97974.41
2018-02-23T16:46:01.263Z,97980.87
2018-02-23T16:48:28.932Z,97989.06
2018-02-23T16:50:56.977Z,97997.25
2018-02-23T16:53:24.654Z,98000.09
2018-02-23T16:55:52.324Z,98007.11
2018-02-23T16:58:20.017Z,98003.57
2018-02-23T17:00:47.700Z,98005.59
2018-02-23T17:03:15.392Z,98012.28
2018-02-23T17:05:43.076Z,98013.71
2018-02-23T17:08:10.809Z,98018.67
2018-02-23T17:10:38.490Z,98022.54
2018-02-23T17:13:06.199Z,98033.17
2018-02-23T17:15:33.886Z,98031.06
2018-02-23T17:18:01.568Z,98034.83
2018-02-23T17:20:29.272Z,98034.02
2018-02-23T17:22:56.936Z,98047.28
2018-02-23T17:25:24.814Z,98053.18
2018-02-23T17:27:52.493Z,98053.72
2018-02-23T17:30:20.163Z,98056.16
2018-02-23T17:32:47.850Z,98064.83
2018-02-23T17:35:15.531Z,98066.86
2018-02-23T17:37:43.225Z,98065.59
2018-02-23T17:40:10.891Z,98070.09
2018-02-23T17:42:38.600Z,98073.36
2018-02-23T17:45:06.275Z,98075.63
2018-02-23T17:47:33.949Z,98074.28
2018-02-23T17:50:01.693Z,98074.49
2018-02-23T17:52:29.368Z,98082.16
2018-02-23T17:54:57.120Z,98078.63
2018-02-23T17:57:24.773Z,98079.80
2018-02-23T17:59:52.492Z,98083.07
2018-02-23T18:02:20.179Z,98076.59
2018-02-23T18:04:48.680Z,98085.70
2018-02-23T18:07:16.379Z,98083.59
2018-02-23T18:09:44.054Z,98092.12
2018-02-23T18:12:11.746Z,98092.21
2018-02-23T18:14:39.412Z,98092.48
2018-02-23T18:17:07.293Z,98100.88
2018-02-23T18:19:34.969Z,98096.33
2018-02-23T18:22:02.649Z,98098.11
2018-02-23T18:24:30.354Z,98099.19
2018-02-23T18:26:58.154Z,98101.98
2018-02-23T18:29:25.850Z,98100.12
2018-02-23T18:31:53.579Z,98102.75
2018-02-23T18:34:21.300Z,98111.50
2018-02-23T18:36:48.968Z,98112.91
2018-02-23T18:39:16.648Z,98120.20
2018-02-23T18:41:44.336Z,98129.06
2018-02-23T18:44:12.003Z,98128.16
2018-02-23T18:46:39.703Z,98139.91
2018-02-23T18:49:07.464Z,98130.81
2018-02-23T18:51:35.160Z,98124.29
2018-02-23T18:54:02.829Z,98126.02
2018-02-23T18:56:30.509Z,98133.37
2018-02-23T18:58:58.201Z,98123.05
2018-02-23T19:01:25.898Z,98128.84
2018-02-23T19:03:53.589Z,98131.50
2018-02-23T19:06:21.264Z,98132.58
2018-02-23T19:08:48.953Z,98134.04
2018-02-23T19:11:16.640Z,98134.68
2018-02-23T19:13:44.363Z,98130.45
2018-02-23T19:16:12.049Z,98139.91
2018-02-23T19:18:39.729Z,98143.89
2018-02-23T19:21:07.846Z,98140.55
2018-02-23T19:23:35.515Z,98139.07
2018-02-23T19:26:03.188Z,98134.42
2018-02-23T19:28:30.892Z,98142.03
2018-02-23T19:30:58.555Z,98131.13
2018-02-23T19:33:26.261Z,98129.12
2018-02-23T19:35:53.932Z,98134.56
2018-02-23T19:38:21.789Z,98139.11
2018-02-23T19:40:49.466Z,98139.70
2018-02-23T19:43:17.150Z,98140.87
2018-02-23T19:45:44.859Z,98144.09
2018-02-23T19:48:12.697Z,98137.11
2018-02-23T19:50:40.385Z,98136.75
2018-02-23T19:53:08.057Z,98140.39
2018-02-23T19:55:35.784Z,98147.02
2018-02-23T19:58:03.462Z,98146.69
2018-02-23T20:00:31.142Z,98150.02
2018-02-23T20:02:58.978Z,98150.32
2018-02-23T20:05:26.627Z,98147.61
2018-02-23T20:07:54.548Z,98141.55
2018-02-23T20:10:22.277Z,98143.03
2018-02-23T20:12:49.965Z,98148.70
2018-02-23T20:15:17.669Z,98150.62
2018-02-23T20:17:45.335Z,98152.21
2018-02-23T20:20:13.040Z,98145.88
2018-02-23T20:22:40.715Z,98143.56
2018-02-23T20:25:08.602Z,98141.65
2018-02-23T20:27:36.350Z,98137.05
2018-02-23T20:30:04.036Z,98144.07
2018-02-23T20:32:31.736Z,98145.61
2018-02-23T20:34:59.411Z,98149.64
2018-02-23T20:37:27.108Z,98144.89
2018-02-23T20:39:54.777Z,98146.27
2018-02-23T20:42:22.644Z,98142.62
2018-02-23T20:44:50.328Z,98152.18
2018-02-23T20:47:18.004Z,98153.23
2018-02-23T20:49:45.711Z,98155.73
2018-02-23T20:52:13.394Z,98160.21
2018-02-23T20:54:41.092Z,98159.80
2018-02-23T20:57:08.776Z,98156.75
2018-02-23T20:59:36.476Z,98170.77
2018-02-23T21:02:04.163Z,98169.00
2018-02-23T21:04:31.902Z,98173.30
2018-02-23T21:06:59.589Z,98167.20
2018-02-23T21:09:27.260Z,98166.51
2018-02-23T21:11:54.952Z,98175.11
2018-02-23T21:14:22.624Z,98178.27
2018-02-23T21:16:50.312Z,98167.98
2018-02-23T21:19:17.980Z,98174.02
2018-02-23T21:21:45.672Z,98170.63
2018-02-23T21:24:13.350Z,98172.37
2018-02-23T21:26:41.200Z,98164.09
2018-02-23T21:29:08.877Z,98166.17
2018-02-23T21:31:36.554Z,98163.07
2018-02-23T21:34:04.276Z,98164.23
2018-02-23T21:36:31.945Z,98163.30
2018-02-23T21:38:59.655Z,98158.55
2018-02-23T21:41:27.348Z,98155.05
2018-02-23T21:43:55.057Z,98156.27
2018-02-23T21:46:22.732Z,98168.55
2018-02-23T21:48:50.552Z,98163.22
2018-02-23T21:51:18.226Z,98161.28
2018-02-23T21:53:45.983Z,98166.02
2018-02-23T21:58:47.521Z,98157.39
2018-02-23T22:01:15.249Z,98163.59
2018-02-23T22:03:42.912Z,98163.53
2018-02-23T22:06:10.619Z,98160.70
2018-02-23T22:08:38.295Z,98170.09
2018-02-23T22:11:05.993Z,98168.13
2018-02-23T22:13:33.679Z,98168.05
2018-02-23T22:16:01.807Z,98167.54
2018-02-23T22:18:29.475Z,98169.20
2018-02-23T22:20:57.163Z,98164.45
2018-02-23T22:23:24.856Z,98164.97
2018-02-23T22:25:52.533Z,98170.88
2018-02-23T22:28:20.233Z,98175.92
2018-02-23T22:30:47.916Z,98175.27
2018-02-23T22:33:15.939Z,98177.86
2018-02-23T22:35:43.708Z,98181.52
2018-02-23T22:38:11.387Z,98180.89
2018-02-23T22:40:39.080Z,98180.52
2018-02-23T22:43:06.743Z,98177.52
2018-02-23T22:45:34.444Z,98176.70
2018-02-23T22:48:02.119Z,98185.27
2018-02-23T22:50:29.865Z,98191.39
2018-02-23T22:52:57.559Z,98178.70
2018-02-23T22:55:25.248Z,98180.69
2018-02-23T22:57:52.953Z,98189.48
2018-02-23T23:00:20.628Z,98182.96
2018-02-23T23:02:48.508Z,98188.09
2018-02-23T23:05:16.182Z,98190.17
2018-02-23T23:07:43.862Z,98191.30
2018-02-23T23:10:11.551Z,98190.77
2018-02-23T23:12:39.224Z,98203.63
2018-02-23T23:15:06.920Z,98195.94
2018-02-23T23:17:34.596Z,98189.94
2018-02-23T23:20:02.305Z,98194.12
2018-02-23T23:22:29.980Z,98203.14
2018-02-23T23:24:57.687Z,98204.64
2018-02-23T23:27:25.363Z,98203.18
2018-02-23T23:29:53.052Z,98202.34
2018-02-23T23:32:20.729Z,98196.56
2018-02-23T23:34:48.416Z,98199.55
2018-02-23T23:37:16.086Z,98207.11
2018-02-23T23:39:43.852Z,98195.43
2018-02-23T23:42:11.523Z,98196.06
2018-02-23T23:44:39.219Z,98195.95
2018-02-23T23:47:06.892Z,98193.08
2018-02-23T23:49:34.607Z,98192.44
2018-02-23T23:52:02.285Z,98191.84
2018-02-23T23:54:30.020Z,98197.95
2018-02-23T23:56:57.713Z,98186.13
2018-02-23T23:59:25.396Z,98194.98
